Time;durP1;ratioP1;P1;durP2;ratioP2;P2;SDS_P1;SDS_P2;PMS_P1;PMS_P2;Temp;Humidity;BMP_temperature;BMP_pressure;BME280_temperature;BME280_humidity;BME280_pressure;Samples;Min_cycle;Max_cycle;Signal;HPM_P1;HPM_P2
2021/01/24 00:01:20;;;;;;;35.33;12.90;;;;;;;0.16;100.00;98745.44;4999529;28;20291;-66
2021/01/24 00:03:45;;;;;;;41.67;14.10;;;;;;;0.18;100.00;98738.59;4999008;28;20509;-66
2021/01/24 00:06:10;;;;;;;35.97;13.00;;;;;;;0.20;100.00;98739.47;4991131;28;20041;-64
2021/01/24 00:08:36;;;;;;;34.83;12.53;;;;;;;0.20;100.00;98737.78;5005356;28;20034;-66
2021/01/24 00:11:01;;;;;;;41.37;13.27;;;;;;;0.25;100.00;98737.84;4995669;28;20037;-66
2021/01/24 00:13:27;;;;;;;35.23;12.03;;;;;;;0.22;100.00;98740.34;5001779;28;20052;-64
2021/01/24 00:15:52;;;;;;;43.73;12.47;;;;;;;0.22;100.00;98733.50;5000539;28;20033;-66
2021/01/24 00:18:17;;;;;;;38.77;13.53;;;;;;;0.25;100.00;98738.72;4997011;28;20046;-66
2021/01/24 00:20:43;;;;;;;38.37;13.70;;;;;;;0.24;100.00;98733.53;5000114;28;20091;-65
2021/01/24 00:23:08;;;;;;;44.37;13.53;;;;;;;0.28;100.00;98728.44;4998419;28;20580;-66
2021/01/24 00:25:34;;;;;;;43.33;14.27;;;;;;;0.33;100.00;98725.91;4996268;28;20030;-67
2021/01/24 00:27:59;;;;;;;39.27;13.07;;;;;;;0.33;100.00;98723.34;4998883;28;20033;-66
2021/01/24 00:30:24;;;;;;;37.57;13.07;;;;;;;0.30;100.00;98725.88;4997161;28;20372;-66
2021/01/24 00:32:50;;;;;;;35.97;12.30;;;;;;;0.25;100.00;98728.44;4994310;28;20042;-65
2021/01/24 00:35:16;;;;;;;33.43;11.97;;;;;;;0.21;100.00;98720.66;4998671;28;20048;-66
2021/01/24 00:37:42;;;;;;;38.87;12.30;;;;;;;0.21;100.00;98723.22;5002740;28;20033;-65
2021/01/24 00:40:09;;;;;;;37.80;12.70;;;;;;;0.23;100.00;98721.53;5001785;28;20291;-66
2021/01/24 00:42:35;;;;;;;38.07;13.27;;;;;;;0.24;100.00;98725.81;4997439;28;20026;-66
2021/01/24 00:45:00;;;;;;;36.40;13.40;;;;;;;0.19;100.00;98717.22;5000411;28;20288;-66
2021/01/24 00:47:26;;;;;;;36.30;13.53;;;;;;;0.11;100.00;98713.69;4991918;28;20281;-64
2021/01/24 00:49:52;;;;;;;35.63;12.73;;;;;;;0.10;100.00;98717.09;5008132;28;20041;-67
2021/01/24 00:52:17;;;;;;;40.97;12.47;;;;;;;0.12;100.00;98715.41;5006583;28;20034;-65
2021/01/24 00:54:42;;;;;;;36.10;12.73;;;;;;;0.14;100.00;98712.03;4994688;28;20026;-65
2021/01/24 00:57:08;;;;;;;40.33;13.10;;;;;;;0.17;100.00;98704.34;5002717;28;20500;-65
2021/01/24 00:59:34;;;;;;;36.10;12.87;;;;;;;0.18;100.00;98700.06;5004346;28;20052;-67
2021/01/24 01:02:00;;;;;;;47.20;13.90;;;;;;;0.17;100.00;98700.91;5004030;28;20048;-65
2021/01/24 01:04:25;;;;;;;40.80;13.53;;;;;;;0.16;100.00;98706.91;5004536;28;20288;-66
2021/01/24 01:06:51;;;;;;;38.70;12.10;;;;;;;0.23;100.00;98699.25;5004316;28;20161;-66
2021/01/24 01:09:16;;;;;;;35.83;12.33;;;;;;;0.36;100.00;98705.38;5002329;28;20109;-66
2021/01/24 01:11:42;;;;;;;32.87;12.67;;;;;;;0.43;100.00;98702.03;5003466;28;20484;-66
2021/01/24 01:14:07;;;;;;;41.90;12.57;;;;;;;0.44;100.00;98701.19;5010653;28;20545;-65
2021/01/24 01:16:33;;;;;;;32.30;12.23;;;;;;;0.43;100.00;98702.03;5001147;28;20109;-66
2021/01/24 01:18:58;;;;;;;36.37;11.73;;;;;;;0.41;100.00;98705.44;4994435;28;20514;-67
2021/01/24 01:21:24;;;;;;;28.73;11.37;;;;;;;0.39;100.00;98705.44;4994054;28;20113;-66
2021/01/24 01:23:49;;;;;;;34.53;11.60;;;;;;;0.39;100.00;98707.13;4992290;28;20030;-65
2021/01/24 01:26:15;;;;;;;28.40;11.33;;;;;;;0.40;100.00;98704.56;4993290;28;20045;-67
2021/01/24 01:28:41;;;;;;;30.53;10.80;;;;;;;0.46;100.00;98706.31;4993018;28;20053;-67
2021/01/24 01:31:06;;;;;;;32.97;10.57;;;;;;;0.49;100.00;98712.38;4999027;28;20037;-67
2021/01/24 01:33:31;;;;;;;29.63;11.00;;;;;;;0.52;100.00;98709.84;5007866;28;20065;-66
2021/01/24 01:35:57;;;;;;;35.37;12.17;;;;;;;0.54;100.00;98705.56;5007860;28;20456;-66
2021/01/24 01:38:22;;;;;;;33.13;12.43;;;;;;;0.52;100.00;98709.84;5002597;28;20397;-65
2021/01/24 01:40:51;;;;;;;29.53;11.50;;;;;;;0.49;100.00;98706.38;5007673;28;20052;-67
2021/01/24 01:43:17;;;;;;;31.23;11.73;;;;;;;0.48;100.00;98708.06;5009725;28;20547;-67
2021/01/24 01:45:42;;;;;;;30.90;11.00;;;;;;;0.43;100.00;98709.75;5009117;28;20293;-66
2021/01/24 01:48:08;;;;;;;29.40;10.37;;;;;;;0.51;100.00;98715.81;5010328;28;20029;-66
2021/01/24 01:50:34;;;;;;;25.50;10.33;;;;;;;0.58;100.00;98714.16;5010833;28;20026;-66
2021/01/24 01:53:00;;;;;;;28.33;10.37;;;;;;;0.64;100.00;98721.09;5007948;28;20457;-67
2021/01/24 01:55:26;;;;;;;25.17;10.50;;;;;;;0.61;100.00;98726.16;4997067;28;20058;-67
2021/01/24 01:57:52;;;;;;;29.80;10.77;;;;;;;0.58;100.00;98719.28;4999513;28;20914;-66
2021/01/24 02:00:17;;;;;;;27.30;11.30;;;;;;;0.55;100.00;98722.72;5004772;28;20034;-66
2021/01/24 02:03:05;;;;;;;28.30;9.87;;;;;;;0.57;100.00;98713.28;5004089;28;20362;-66
2021/01/24 02:05:45;;;;;;;25.83;9.77;;;;;;;0.64;100.00;98715.94;4995957;28;20030;-66
2021/01/24 02:08:20;;;;;;;25.80;10.17;;;;;;;0.69;100.00;98716.81;5005299;28;20293;-66
2021/01/24 02:11:08;;;;;;;25.40;10.73;;;;;;;0.72;100.00;98719.41;5002060;28;20296;-65
2021/01/24 02:13:58;;;;;;;31.90;9.70;;;;;;;0.74;100.00;98712.59;4995699;28;20273;-67
2021/01/24 02:16:27;;;;;;;27.87;11.20;;;;;;;0.74;100.00;98717.75;5005653;28;20375;-66
2021/01/24 02:18:53;;;;;;;27.53;10.57;;;;;;;0.72;100.00;98709.13;5007673;28;20292;-66
2021/01/24 02:21:32;;;;;;;22.30;9.47;;;;;;;0.73;100.00;98710.88;5005982;28;20680;-66
2021/01/24 02:24:03;;;;;;;25.20;11.10;;;;;;;0.74;100.00;98713.47;5003841;28;20312;-66
2021/01/24 02:27:02;;;;;;;26.33;10.40;;;;;;;0.79;100.00;98716.06;4995128;28;20295;-66
2021/01/24 02:29:39;;;;;;;22.20;9.30;;;;;;;0.84;100.00;98714.38;5005140;28;20277;-66
2021/01/24 02:32:07;;;;;;;21.83;8.70;;;;;;;0.90;100.00;98718.72;5001860;28;20280;-65
2021/01/24 02:34:37;;;;;;;30.07;10.33;;;;;;;0.97;100.00;98712.75;5006266;28;20280;-67
2021/01/24 02:37:04;;;;;;;25.90;10.17;;;;;;;0.96;100.00;98718.75;4995651;28;21975;-65
2021/01/24 02:39:32;;;;;;;25.30;9.20;;;;;;;0.95;100.00;98717.88;5007513;28;20285;-67
2021/01/24 02:41:57;;;;;;;25.83;10.77;;;;;;;0.89;100.00;98717.84;5000253;28;20296;-65
2021/01/24 02:44:23;;;;;;;25.27;11.57;;;;;;;0.87;100.00;98714.41;5006816;28;20303;-66
2021/01/24 02:46:49;;;;;;;24.87;10.17;;;;;;;0.81;100.00;98720.34;5001295;28;20374;-66
2021/01/24 02:49:15;;;;;;;25.80;10.07;;;;;;;0.76;100.00;98716.91;5009129;28;20291;-67
2021/01/24 02:51:42;;;;;;;24.00;9.87;;;;;;;0.74;100.00;98717.75;5005170;28;20456;-66
2021/01/24 02:54:08;;;;;;;23.37;9.70;;;;;;;0.72;100.00;98720.28;5014628;28;20029;-67
2021/01/24 02:56:34;;;;;;;23.60;10.20;;;;;;;0.72;100.00;98724.56;5001485;28;20822;-66
2021/01/24 02:59:01;;;;;;;23.17;10.30;;;;;;;0.72;100.00;98724.56;4993541;28;20293;-67
2021/01/24 03:01:26;;;;;;;22.83;9.80;;;;;;;0.70;100.00;98736.53;5004703;28;20029;-66
2021/01/24 03:03:52;;;;;;;21.70;10.03;;;;;;;0.64;100.00;98733.94;4999260;28;20308;-66
2021/01/24 03:06:17;;;;;;;24.60;9.67;;;;;;;0.69;100.00;98734.81;4999324;28;20495;-66
2021/01/24 03:08:43;;;;;;;26.30;9.97;;;;;;;0.69;100.00;98738.25;5008032;28;20034;-66
2021/01/24 03:11:16;;;;;;;25.10;10.50;;;;;;;0.67;100.00;98733.97;4993540;28;20121;-66
2021/01/24 03:13:50;;;;;;;25.70;10.05;;;;;;;0.61;100.00;98736.47;4992168;28;20281;-66
2021/01/24 03:16:16;;;;;;;25.07;10.33;;;;;;;0.55;100.00;98732.13;4991220;28;20034;-66
2021/01/24 03:18:45;;;;;;;25.83;9.90;;;;;;;0.51;100.00;98736.41;5005062;28;20656;-66
2021/01/24 03:21:13;;;;;;;23.37;9.93;;;;;;;0.48;100.00;98736.34;4999045;28;20567;-67
2021/01/24 03:23:39;;;;;;;27.60;11.23;;;;;;;0.48;100.00;98735.47;5000828;28;20391;-66
2021/01/24 03:26:07;;;;;;;24.33;10.33;;;;;;;0.51;100.00;98735.53;5003228;28;20355;-65
2021/01/24 03:28:35;;;;;;;30.60;10.30;;;;;;;0.52;100.00;98732.97;5001639;28;20461;-66
2021/01/24 03:31:02;;;;;;;23.00;10.60;;;;;;;0.53;100.00;98729.56;5016987;28;20273;-66
2021/01/24 03:33:28;;;;;;;25.10;10.53;;;;;;;0.54;100.00;98728.69;4996504;28;20285;-66
2021/01/24 03:35:53;;;;;;;27.37;11.50;;;;;;;0.53;100.00;98726.97;5000662;28;20768;-66
2021/01/24 03:38:19;;;;;;;23.30;9.87;;;;;;;0.52;100.00;98727.84;5001660;28;20414;-67
2021/01/24 03:40:44;;;;;;;24.93;10.90;;;;;;;0.54;100.00;98728.69;4992677;28;20036;-66
2021/01/24 03:43:10;;;;;;;28.40;10.50;;;;;;;0.59;100.00;98737.31;4996674;28;20493;-66
2021/01/24 03:45:35;;;;;;;28.97;11.33;;;;;;;0.59;100.00;98734.72;5004774;28;20030;-67
2021/01/24 03:48:00;;;;;;;26.67;9.77;;;;;;;0.57;100.00;98738.16;5008507;28;20025;-66
2021/01/24 03:50:26;;;;;;;27.70;9.90;;;;;;;0.57;100.00;98739.00;5006356;28;20032;-66
2021/01/24 03:52:51;;;;;;;31.27;11.10;;;;;;;0.61;100.00;98736.47;4990643;28;20102;-66
2021/01/24 03:55:17;;;;;;;27.77;10.37;;;;;;;0.59;100.00;98739.88;5000191;28;20026;-66
2021/01/24 03:57:42;;;;;;;24.93;9.67;;;;;;;0.59;100.00;98737.31;4993034;28;20028;-67
2021/01/24 04:00:08;;;;;;;29.27;11.53;;;;;;;0.59;100.00;98734.72;4995599;28;20026;-67
2021/01/24 04:02:33;;;;;;;26.27;10.10;;;;;;;0.57;100.00;98740.72;4996041;28;20026;-65
2021/01/24 04:04:59;;;;;;;26.63;10.93;;;;;;;0.55;100.00;98734.69;4997914;28;20367;-66
2021/01/24 04:07:24;;;;;;;28.00;10.27;;;;;;;0.56;100.00;98737.28;4990414;28;20042;-65
2021/01/24 04:09:50;;;;;;;25.73;10.57;;;;;;;0.56;100.00;98739.84;4990744;28;20398;-67
2021/01/24 04:12:15;;;;;;;24.47;9.67;;;;;;;0.60;100.00;98735.59;4999376;28;20030;-67
2021/01/24 04:14:41;;;;;;;34.87;11.03;;;;;;;0.57;100.00;98733.88;4996514;28;20381;-67
2021/01/24 04:17:06;;;;;;;28.17;10.27;;;;;;;0.58;100.00;98735.59;5008276;28;20052;-67
2021/01/24 04:19:32;;;;;;;28.07;10.37;;;;;;;0.61;100.00;98737.34;5007985;28;20092;-66
2021/01/24 04:21:58;;;;;;;24.90;10.30;;;;;;;0.62;100.00;98741.63;5008841;28;20032;-66
2021/01/24 04:24:24;;;;;;;26.73;10.37;;;;;;;0.65;100.00;98738.22;5016607;28;20025;-66
2021/01/24 04:26:50;;;;;;;26.20;11.40;;;;;;;0.63;100.00;98733.06;5010011;28;20109;-66
2021/01/24 04:29:16;;;;;;;27.20;10.20;;;;;;;0.58;100.00;98732.16;5011676;28;20261;-66
2021/01/24 04:31:41;;;;;;;26.00;11.07;;;;;;;0.59;100.00;98733.88;5011725;28;20277;-67
2021/01/24 04:34:07;;;;;;;27.27;10.97;;;;;;;0.56;100.00;98734.72;5012196;28;20080;-67
2021/01/24 04:36:32;;;;;;;26.23;9.97;;;;;;;0.53;100.00;98738.97;4997672;28;20026;-66
2021/01/24 04:38:57;;;;;;;26.13;10.60;;;;;;;0.45;100.00;98733.75;4995236;28;20029;-66
2021/01/24 04:41:25;;;;;;;21.63;9.40;;;;;;;0.41;100.00;98739.72;5006351;28;20388;-65
2021/01/24 04:43:52;;;;;;;24.67;9.90;;;;;;;0.36;100.00;98738.78;5003581;28;20033;-66
2021/01/24 04:46:17;;;;;;;25.03;9.77;;;;;;;0.33;100.00;98741.34;5001692;28;20686;-67
2021/01/24 04:48:43;;;;;;;25.20;10.07;;;;;;;0.25;100.00;98742.97;5006190;28;20383;-67
2021/01/24 04:51:08;;;;;;;22.80;9.47;;;;;;;0.19;100.00;98754.03;4998388;28;20164;-66
2021/01/24 04:53:35;;;;;;;25.77;10.60;;;;;;;0.15;100.00;98751.44;5012695;28;20033;-66
2021/01/24 04:56:01;;;;;;;26.17;9.43;;;;;;;0.14;100.00;98754.84;5011268;28;20112;-66
2021/01/24 04:58:27;;;;;;;27.87;10.27;;;;;;;0.11;100.00;98759.94;5011736;28;20660;-67
2021/01/24 05:00:54;;;;;;;33.43;11.87;;;;;;;0.16;100.00;98753.16;5004806;28;20277;-66
2021/01/24 05:03:20;;;;;;;32.03;11.80;;;;;;;0.17;100.00;98754.88;5003683;28;20857;-67
2021/01/24 05:05:45;;;;;;;34.83;12.93;;;;;;;0.21;100.00;98759.19;5008706;28;20292;-66
2021/01/24 05:08:11;;;;;;;35.60;13.03;;;;;;;0.25;100.00;98760.97;5011555;28;20069;-66
2021/01/24 05:10:37;;;;;;;38.40;13.40;;;;;;;0.26;100.00;98755.84;5002482;28;20034;-66
2021/01/24 05:13:03;;;;;;;38.07;13.13;;;;;;;0.29;100.00;98755.00;5010230;28;20284;-65
2021/01/24 05:15:29;;;;;;;34.20;12.93;;;;;;;0.28;100.00;98753.28;5004814;28;20033;-67
2021/01/24 05:17:56;;;;;;;39.90;14.00;;;;;;;0.27;100.00;98761.84;5008451;28;20034;-66
2021/01/24 05:20:27;;;;;;;30.63;12.53;;;;;;;0.26;100.00;98758.41;4993667;28;20034;-66
2021/01/24 05:22:53;;;;;;;32.83;12.57;;;;;;;0.24;100.00;98761.78;5002822;28;20276;-65
2021/01/24 05:25:23;;;;;;;37.50;13.33;;;;;;;0.27;100.00;98757.56;4999526;28;20335;-66
2021/01/24 05:27:49;;;;;;;28.97;12.07;;;;;;;0.27;100.00;98756.72;5011302;28;20291;-66
2021/01/24 05:30:21;;;;;;;34.33;12.87;;;;;;;0.27;100.00;98761.84;5004706;28;20281;-66
2021/01/24 05:32:47;;;;;;;32.72;11.82;;;;;;;0.26;100.00;98765.25;5005338;28;20076;-65
2021/01/24 05:35:14;;;;;;;33.83;12.90;;;;;;;0.26;100.00;98765.25;5000006;28;20436;-66
2021/01/24 05:37:44;;;;;;;32.27;11.97;;;;;;;0.29;100.00;98767.88;5007205;28;20030;-66
2021/01/24 05:40:10;;;;;;;32.50;12.87;;;;;;;0.33;100.00;98767.03;5009379;28;20980;-66
2021/01/24 05:42:37;;;;;;;37.53;12.63;;;;;;;0.35;100.00;98767.91;4993770;28;20309;-65
2021/01/24 05:45:16;;;;;;;33.67;12.43;;;;;;;0.37;100.00;98768.81;4997751;28;20604;-67
2021/01/24 05:47:46;;;;;;;33.57;14.03;;;;;;;0.36;100.00;98774.78;5010570;28;20378;-66
2021/01/24 05:50:16;;;;;;;35.63;13.47;;;;;;;0.35;100.00;98773.06;5003794;28;20292;-66
2021/01/24 05:52:47;;;;;;;33.63;12.83;;;;;;;0.38;100.00;98778.25;5008381;28;20319;-66
2021/01/24 05:55:32;;;;;;;33.50;12.27;;;;;;;0.40;100.00;98779.13;4998219;28;20272;-66
2021/01/24 05:57:59;;;;;;;29.87;12.83;;;;;;;0.43;100.00;98784.28;4993098;28;20285;-66
2021/01/24 06:00:25;;;;;;;31.77;13.60;;;;;;;0.43;100.00;98779.16;4992473;28;20274;-65
2021/01/24 06:02:50;;;;;;;30.73;12.77;;;;;;;0.43;100.00;98789.44;4996966;28;20297;-67
2021/01/24 06:05:16;;;;;;;35.77;13.27;;;;;;;0.40;100.00;98791.97;5006272;28;20108;-67
2021/01/24 06:07:41;;;;;;;29.47;12.10;;;;;;;0.42;100.00;98797.13;5012083;28;20080;-67
2021/01/24 06:10:07;;;;;;;33.93;13.07;;;;;;;0.39;100.00;98792.81;5004471;28;20022;-66
2021/01/24 06:12:36;;;;;;;31.57;12.47;;;;;;;0.37;100.00;98794.53;5010653;28;20029;-66
2021/01/24 06:15:05;;;;;;;33.23;12.13;;;;;;;0.36;100.00;98797.91;4993372;28;20693;-65
2021/01/24 06:17:38;;;;;;;38.40;12.70;;;;;;;0.35;100.00;98811.59;4997476;28;20281;-67
2021/01/24 06:20:06;;;;;;;32.80;12.37;;;;;;;0.37;100.00;98809.94;5003956;28;20288;-66
2021/01/24 06:22:41;;;;;;;29.93;13.03;;;;;;;0.37;100.00;98814.22;5010645;28;20037;-67
2021/01/24 06:25:11;;;;;;;30.63;12.63;;;;;;;0.37;100.00;98819.38;5004160;28;20288;-67
2021/01/24 06:27:43;;;;;;;33.70;12.83;;;;;;;0.32;100.00;98814.16;5011043;28;20283;-67
2021/01/24 06:30:13;;;;;;;33.53;12.57;;;;;;;0.27;100.00;98824.38;5005161;28;20368;-66
2021/01/24 06:32:38;;;;;;;30.50;12.60;;;;;;;0.27;100.00;98828.66;5004739;28;20281;-66
2021/01/24 06:35:42;;;;;;;34.87;12.73;;;;;;;0.22;100.00;98827.72;4996399;28;20650;-67
2021/01/24 06:38:08;;;;;;;31.93;12.57;;;;;;;0.19;100.00;98832.84;4992427;28;20030;-65
2021/01/24 06:40:42;;;;;;;28.43;12.47;;;;;;;0.16;100.00;98841.38;5008032;28;20676;-67
2021/01/24 06:43:07;;;;;;;30.57;12.23;;;;;;;0.12;100.00;98842.19;4996503;28;20113;-66
2021/01/24 06:45:32;;;;;;;28.93;11.00;;;;;;;0.03;100.00;98833.50;4993187;28;20376;-67
2021/01/24 06:47:59;;;;;;;27.53;11.97;;;;;;;0.01;100.00;98845.47;5009984;28;20036;-66
2021/01/24 06:50:41;;;;;;;35.27;13.40;;;;;;;0.03;100.00;98843.78;4999712;28;20485;-64
2021/01/24 06:53:23;;;;;;;35.47;13.73;;;;;;;0.13;100.00;98856.75;4991997;28;20762;-67
2021/01/24 06:56:06;;;;;;;39.35;14.18;;;;;;;0.15;100.00;98854.22;4999868;28;20890;-67
2021/01/24 06:58:32;;;;;;;;;;;;;;;0.16;100.00;98856.78;5009701;28;20069;-66
2021/01/24 07:01:22;;;;;;;38.17;13.30;;;;;;;0.13;100.00;98867.03;5001904;28;19913;-66
2021/01/24 07:04:25;;;;;;;44.30;12.60;;;;;;;0.06;100.00;98869.50;4996161;28;20367;-66
2021/01/24 07:06:53;;;;;;;34.85;13.23;;;;;;;-0.03;100.00;98870.22;5007578;28;20352;-67
2021/01/24 07:09:24;;;;;;;35.83;13.27;;;;;;;-0.11;100.00;98872.69;5003737;28;20464;-66
2021/01/24 07:12:04;;;;;;;42.90;14.73;;;;;;;-0.19;100.00;98879.44;5001019;28;20459;-66
2021/01/24 07:14:32;;;;;;;41.93;14.13;;;;;;;-0.23;100.00;98876.81;4991389;28;20276;-66
2021/01/24 07:17:01;;;;;;;35.30;14.00;;;;;;;-0.43;100.00;98879.06;5003469;28;20833;-66
2021/01/24 07:19:32;;;;;;;42.53;14.97;;;;;;;-0.56;100.00;98883.13;5021558;28;20803;-66
2021/01/24 07:21:58;;;;;;;40.00;13.93;;;;;;;-0.67;100.00;98888.09;5009288;28;20784;-67
2021/01/24 07:24:25;;;;;;;40.27;13.50;;;;;;;-0.73;100.00;98890.53;4995935;28;20799;-67
2021/01/24 07:26:54;;;;;;;47.00;15.03;;;;;;;-0.74;100.00;98899.06;5009023;28;20289;-66
2021/01/24 07:29:21;;;;;;;45.07;16.07;;;;;;;-0.83;100.00;98893.81;5007025;28;20792;-66
2021/01/24 07:31:47;;;;;;;43.80;14.30;;;;;;;-0.87;100.00;98899.69;5009347;28;20642;-66
2021/01/24 07:34:12;;;;;;;41.50;14.83;;;;;;;-0.91;100.00;98895.38;4995565;28;20288;-66
2021/01/24 07:36:38;;;;;;;49.07;14.60;;;;;;;-0.91;100.00;98900.50;4991496;28;20033;-66
2021/01/24 07:39:04;;;;;;;43.13;15.93;;;;;;;-0.92;100.00;98909.03;4993336;28;20097;-66
2021/01/24 07:41:32;;;;;;;58.23;16.17;;;;;;;-0.88;100.00;98908.22;5003752;28;20034;-66
2021/01/24 07:43:58;;;;;;;49.77;16.43;;;;;;;-0.82;100.00;98910.91;4990385;28;20088;-65
2021/01/24 07:46:24;;;;;;;47.20;15.43;;;;;;;-0.89;100.00;98909.06;4997654;28;20746;-66
2021/01/24 07:48:50;;;;;;;51.80;15.67;;;;;;;-0.92;100.00;98915.03;5004859;28;20088;-66
2021/01/24 07:51:16;;;;;;;58.70;16.30;;;;;;;-0.87;100.00;98912.53;5004710;28;20363;-66
2021/01/24 07:53:42;;;;;;;78.67;18.50;;;;;;;-0.81;100.00;98917.78;4998007;28;20023;-66
2021/01/24 07:56:07;;;;;;;63.80;19.73;;;;;;;-0.70;100.00;98921.41;4997345;28;20287;-65
2021/01/24 07:58:33;;;;;;;81.50;20.33;;;;;;;-0.55;100.00;98932.75;5005336;28;20281;-66
2021/01/24 08:00:58;;;;;;;69.70;20.67;;;;;;;-0.44;100.00;98932.09;4991643;28;20037;-66
2021/01/24 08:03:26;;;;;;;73.70;21.50;;;;;;;-0.43;100.00;98936.41;5001401;28;20033;-66
2021/01/24 08:05:52;;;;;;;91.07;22.57;;;;;;;-0.36;100.00;98947.63;4994980;28;20030;-65
2021/01/24 08:08:18;;;;;;;78.73;21.17;;;;;;;-0.36;100.00;98947.63;4994343;28;20815;-66
2021/01/24 08:10:44;;;;;;;71.23;19.40;;;;;;;-0.37;100.00;98948.44;4999090;28;20031;-66
2021/01/24 08:13:09;;;;;;;72.33;20.37;;;;;;;-0.39;100.00;98950.13;5006050;28;20307;-65
2021/01/24 08:15:35;;;;;;;64.07;19.37;;;;;;;-0.34;100.00;98945.97;5009746;28;20033;-67
2021/01/24 08:18:01;;;;;;;69.37;18.87;;;;;;;-0.35;100.00;98954.50;5010108;28;20113;-67
2021/01/24 08:20:28;;;;;;;57.83;18.67;;;;;;;-0.33;100.00;98950.25;5008218;28;20030;-64
2021/01/24 08:22:54;;;;;;;60.07;18.70;;;;;;;-0.34;100.00;98951.09;4998325;28;20285;-65
2021/01/24 08:25:20;;;;;;;55.73;19.43;;;;;;;-0.30;100.00;98947.72;5003334;28;20323;-66
2021/01/24 08:27:47;;;;;;;65.23;19.13;;;;;;;-0.22;100.00;98946.16;5002860;28;20277;-66
2021/01/24 08:30:13;;;;;;;66.03;20.07;;;;;;;-0.16;100.00;98955.66;4998323;28;20022;-66
2021/01/24 08:32:43;;;;;;;65.57;20.03;;;;;;;-0.06;100.00;98957.53;5003810;28;20285;-66
2021/01/24 08:35:12;;;;;;;57.90;18.47;;;;;;;0.01;100.00;98959.34;4994527;28;20440;-66
2021/01/24 08:37:38;;;;;;;54.17;18.57;;;;;;;0.12;100.00;98962.06;5005157;28;21055;-65
2021/01/24 08:40:05;;;;;;;54.60;17.50;;;;;;;0.27;100.00;98967.44;4997680;28;20372;-66
2021/01/24 08:42:44;;;;;;;50.53;17.07;;;;;;;0.49;100.00;98964.34;5003459;28;20032;-66
2021/01/24 08:45:10;;;;;;;49.10;15.90;;;;;;;0.72;100.00;98963.75;4998593;28;20587;-65
2021/01/24 08:47:35;;;;;;;43.53;15.30;;;;;;;0.98;100.00;98969.22;4998613;28;20272;-67
2021/01/24 08:50:06;;;;;;;39.80;14.03;;;;;;;1.17;100.00;98976.28;5014050;28;20440;-67
2021/01/24 08:52:32;;;;;;;31.43;12.73;;;;;;;1.36;100.00;98987.66;5001658;28;20497;-67
2021/01/24 08:55:02;;;;;;;34.80;12.07;;;;;;;1.57;100.00;98987.84;5006602;28;20284;-66
2021/01/24 08:57:33;;;;;;;27.03;11.40;;;;;;;1.87;100.00;98991.56;5006469;28;20475;-67
2021/01/24 09:00:00;;;;;;;23.73;9.93;;;;;;;2.08;100.00;98990.88;4990379;28;20291;-66
2021/01/24 09:02:37;;;;;;;26.10;10.30;;;;;;;2.38;100.00;99000.53;5000858;28;20282;-68
2021/01/24 09:05:05;;;;;;;25.67;10.63;;;;;;;2.81;100.00;99001.66;4994049;28;20363;-68
2021/01/24 09:07:34;;;;;;;25.93;10.30;;;;;;;2.67;100.00;99009.34;5002619;28;20351;-66
2021/01/24 09:10:30;;;;;;;23.43;10.07;;;;;;;2.59;100.00;99011.00;4992743;28;20644;-68
2021/01/24 09:12:58;;;;;;;25.20;9.67;;;;;;;2.22;100.00;99010.75;5007661;28;20034;-67
2021/01/24 09:15:25;;;;;;;23.63;10.17;;;;;;;2.02;100.00;99008.00;5004574;28;20831;-67
2021/01/24 09:17:52;;;;;;;22.53;10.00;;;;;;;1.99;100.00;99017.44;4998797;28;20938;-67
2021/01/24 09:20:19;;;;;;;25.83;10.10;;;;;;;1.88;100.00;99013.91;5012915;28;20293;-66
2021/01/24 09:22:44;;;;;;;22.97;9.73;;;;;;;1.87;100.00;99017.34;5002573;28;20278;-66
2021/01/24 09:25:10;;;;;;;24.00;10.17;;;;;;;1.62;100.00;99017.09;5005908;28;20284;-67
2021/01/24 09:27:36;;;;;;;26.57;10.50;;;;;;;1.61;100.00;99020.53;5001425;28;20022;-67
2021/01/24 09:30:05;;;;;;;24.87;10.37;;;;;;;1.60;100.00;99023.97;5010475;28;20639;-67
2021/01/24 09:32:30;;;;;;;23.63;10.53;;;;;;;1.67;100.00;99024.88;4999042;28;20041;-65
2021/01/24 09:34:55;;;;;;;31.40;10.70;;;;;;;1.84;100.00;99025.06;5002386;28;20768;-66
2021/01/24 09:37:21;;;;;;;25.40;10.20;;;;;;;1.87;100.00;99032.81;5000835;28;20033;-66
2021/01/24 09:39:46;;;;;;;28.90;11.13;;;;;;;1.91;100.00;99032.84;5008806;28;20026;-66
2021/01/24 09:42:12;;;;;;;26.50;11.37;;;;;;;1.98;100.00;99031.19;4994861;28;20435;-64
2021/01/24 09:44:38;;;;;;;25.30;10.43;;;;;;;2.14;100.00;99033.03;4998540;28;20105;-67
2021/01/24 09:47:03;;;;;;;27.43;10.83;;;;;;;2.40;100.00;99037.50;5010615;28;20374;-65
2021/01/24 09:49:28;;;;;;;26.50;10.00;;;;;;;2.53;100.00;99040.19;5008008;28;20564;-65
2021/01/24 09:51:54;;;;;;;21.37;8.93;;;;;;;2.40;100.00;99042.69;5007180;28;20042;-66
2021/01/24 09:54:19;;;;;;;21.27;9.10;;;;;;;2.45;100.00;99049.59;5008823;28;20076;-65
2021/01/24 09:56:45;;;;;;;25.63;9.07;;;;;;;2.71;100.00;99057.53;5005663;28;20037;-66
2021/01/24 09:59:11;;;;;;;21.80;8.63;;;;;;;2.90;100.00;99049.00;4999564;28;20029;-67
2021/01/24 10:01:37;;;;;;;20.20;8.37;;;;;;;2.96;100.00;99049.91;5003206;28;20453;-66
2021/01/24 10:04:03;;;;;;;18.20;7.53;;;;;;;3.24;100.00;99049.19;5000522;28;20378;-66
2021/01/24 10:06:29;;;;;;;19.63;7.60;;;;;;;3.45;100.00;99053.56;5008378;28;20021;-66
2021/01/24 10:08:54;;;;;;;18.63;7.67;;;;;;;3.53;100.00;99047.56;5011871;28;20640;-65
2021/01/24 10:11:21;;;;;;;18.53;7.67;;;;;;;3.76;100.00;99044.19;5005370;28;20108;-65
2021/01/24 10:13:47;;;;;;;20.13;7.70;;;;;;;3.69;100.00;99052.78;5009173;28;20033;-68
2021/01/24 10:16:13;;;;;;;15.20;6.97;;;;;;;3.72;100.00;99047.59;5009070;28;20662;-67
2021/01/24 10:18:40;;;;;;;14.47;6.80;;;;;;;3.88;100.00;99053.66;5005653;28;20269;-68
2021/01/24 10:21:06;;;;;;;16.87;6.57;;;;;;;4.06;100.00;99059.72;5011550;28;20489;-66
2021/01/24 10:23:32;;;;;;;14.90;6.20;;;;;;;4.21;100.00;99060.59;5006121;28;20373;-68
2021/01/24 10:25:57;;;;;;;14.53;6.33;;;;;;;3.88;100.00;99064.88;5009430;28;20044;-68
2021/01/24 10:28:23;;;;;;;21.10;6.83;;;;;;;3.97;100.00;99058.84;5007788;28;20030;-67
2021/01/24 10:30:49;;;;;;;13.20;6.17;;;;;;;3.91;100.00;99070.06;5009665;28;20083;-68
2021/01/24 10:33:15;;;;;;;17.40;6.90;;;;;;;4.02;100.00;99068.34;5002933;28;20042;-67
2021/01/24 10:35:41;;;;;;;13.83;6.07;;;;;;;4.13;100.00;99075.25;4995900;28;20030;-67
2021/01/24 10:38:07;;;;;;;16.17;6.83;;;;;;;4.06;100.00;99076.97;5002586;28;20069;-68
2021/01/24 10:40:35;;;;;;;14.73;6.00;;;;;;;4.06;100.00;99080.41;5003259;28;20061;-67
2021/01/24 10:43:02;;;;;;;14.27;5.80;;;;;;;3.70;100.00;99086.38;4997388;28;20087;-66
2021/01/24 10:45:27;;;;;;;16.40;6.67;;;;;;;3.59;100.00;99087.19;5002518;28;20442;-67
2021/01/24 10:47:53;;;;;;;13.03;5.73;;;;;;;3.67;100.00;99082.91;5005508;28;20109;-66
2021/01/24 10:50:19;;;;;;;14.20;4.90;;;;;;;3.68;100.00;99088.09;4995386;28;20065;-67
2021/01/24 10:52:45;;;;;;;15.43;6.27;;;;;;;3.78;100.00;99089.00;4998710;28;20041;-67
2021/01/24 10:55:10;;;;;;;18.87;6.03;;;;;;;3.68;100.00;99093.25;5012606;28;20025;-67
2021/01/24 10:57:36;;;;;;;15.57;5.60;;;;;;;3.59;100.00;99093.22;5013161;28;20044;-66
2021/01/24 11:00:04;;;;;;;13.73;5.80;;;;;;;3.67;100.00;99101.00;5004477;28;20397;-66
2021/01/24 11:02:29;;;;;;;15.90;5.80;;;;;;;3.77;100.00;99113.97;4993288;28;20022;-67
2021/01/24 11:04:54;;;;;;;15.60;6.37;;;;;;;3.61;100.00;99111.31;4997846;28;20289;-67
2021/01/24 11:07:20;;;;;;;13.80;5.90;;;;;;;3.80;100.00;99118.28;5005363;28;20034;-67
2021/01/24 11:09:45;;;;;;;15.23;6.57;;;;;;;3.90;100.00;99114.88;5000244;28;20044;-67
2021/01/24 11:12:11;;;;;;;13.00;5.60;;;;;;;3.72;100.00;99110.50;5008635;28;20033;-67
2021/01/24 11:14:37;;;;;;;12.83;5.73;;;;;;;3.76;100.00;99112.25;4997492;28;20477;-67
2021/01/24 11:17:02;;;;;;;17.73;5.80;;;;;;;3.89;100.00;99113.16;5001034;28;20044;-67
2021/01/24 11:19:28;;;;;;;13.40;5.90;;;;;;;3.86;100.00;99113.13;4995987;28;20433;-67
2021/01/24 11:21:54;;;;;;;11.13;5.53;;;;;;;3.87;100.00;99109.66;5005977;28;20096;-67